createdAt,value
2018-06-13T00:00:47.607Z,15.39
2018-06-13T00:01:47.761Z,15.46
2018-06-13T00:02:47.914Z,15.38
2018-06-13T00:03:48.068Z,15.31
2018-06-13T00:04:48.219Z,15.33
2018-06-13T00:05:48.373Z,15.51
2018-06-13T00:06:48.525Z,15.49
2018-06-13T00:07:48.678Z,15.46
2018-06-13T00:08:48.831Z,15.42
2018-06-13T00:09:48.984Z,15.36
2018-06-13T00:10:49.139Z,15.43
2018-06-13T00:11:49.292Z,15.49
2018-06-13T00:12:49.447Z,15.45
2018-06-13T00:13:49.601Z,15.42
2018-06-13T00:14:49.753Z,15.48
2018-06-13T00:15:49.904Z,15.43
2018-06-13T00:16:50.057Z,15.46
2018-06-13T00:17:50.212Z,15.46
2018-06-13T00:18:50.366Z,15.35
2018-06-13T00:19:50.519Z,15.36
2018-06-13T00:20:50.670Z,15.35
2018-06-13T00:21:50.822Z,15.39
2018-06-13T00:22:50.977Z,15.30
2018-06-13T00:23:51.132Z,15.35
2018-06-13T00:24:51.285Z,15.21
2018-06-13T00:25:51.438Z,15.23
2018-06-13T00:26:51.595Z,15.27
2018-06-13T00:27:51.748Z,15.28
2018-06-13T00:28:51.901Z,15.27
2018-06-13T00:29:52.055Z,15.27
2018-06-13T00:30:52.211Z,15.28
2018-06-13T00:31:52.363Z,15.24
2018-06-13T00:32:52.516Z,15.23
2018-06-13T00:33:52.670Z,15.28
2018-06-13T00:34:52.823Z,15.27
2018-06-13T00:35:52.979Z,15.26
2018-06-13T00:36:53.134Z,15.23
2018-06-13T00:37:53.282Z,15.28
2018-06-13T00:38:53.437Z,15.28
2018-06-13T00:39:53.590Z,15.26
2018-06-13T00:40:53.756Z,15.28
2018-06-13T00:41:53.903Z,15.23
2018-06-13T00:42:54.057Z,15.24
2018-06-13T00:43:54.212Z,15.23
2018-06-13T00:44:54.365Z,15.27
2018-06-13T00:45:54.517Z,15.28
2018-06-13T00:46:54.669Z,15.26
2018-06-13T00:47:54.824Z,15.26
2018-06-13T00:48:54.976Z,15.27
2018-06-13T00:49:55.131Z,15.27
2018-06-13T00:50:55.287Z,15.23
2018-06-13T00:51:55.437Z,15.27
2018-06-13T00:52:55.592Z,15.23
2018-06-13T00:53:55.747Z,15.28
2018-06-13T00:54:55.897Z,15.26
2018-06-13T00:55:56.051Z,15.26
2018-06-13T00:56:56.201Z,15.28
2018-06-13T00:57:56.355Z,15.24
2018-06-13T00:58:56.509Z,15.27
2018-06-13T00:59:56.663Z,15.12
2018-06-13T01:00:56.819Z,15.21
2018-06-13T01:01:56.974Z,15.09
2018-06-13T01:02:57.127Z,15.20
2018-06-13T01:03:57.279Z,15.09
2018-06-13T01:04:57.432Z,15.02
2018-06-13T01:05:57.586Z,15.12
2018-06-13T01:06:57.739Z,15.01
2018-06-13T01:07:57.891Z,15.03
2018-06-13T01:08:58.047Z,14.99
2018-06-13T01:09:58.201Z,14.93
2018-06-13T01:10:58.353Z,14.99
2018-06-13T01:11:58.507Z,15.05
2018-06-13T01:12:58.661Z,15.08
2018-06-13T01:13:58.815Z,15.02
2018-06-13T01:14:58.968Z,15.05
2018-06-13T01:15:59.122Z,14.84
2018-06-13T01:16:59.277Z,14.93
2018-06-13T01:17:59.430Z,14.90
2018-06-13T01:18:59.582Z,14.94
2018-06-13T01:19:59.734Z,14.88
2018-06-13T01:20:59.888Z,14.88
2018-06-13T01:22:00.041Z,14.93
2018-06-13T01:23:00.194Z,14.87
2018-06-13T01:24:00.345Z,14.88
2018-06-13T01:25:00.499Z,14.84
2018-06-13T01:26:00.655Z,14.93
2018-06-13T01:27:00.804Z,14.91
2018-06-13T01:28:00.957Z,14.90
2018-06-13T01:29:01.117Z,14.95
2018-06-13T01:30:01.266Z,14.86
2018-06-13T01:31:01.419Z,14.91
2018-06-13T01:32:01.573Z,14.98
2018-06-13T01:33:01.726Z,14.88
2018-06-13T01:34:01.880Z,14.84
2018-06-13T01:35:02.034Z,14.84
2018-06-13T01:36:02.187Z,14.91
2018-06-13T01:37:02.339Z,14.87
2018-06-13T01:38:02.492Z,14.90
2018-06-13T01:39:02.645Z,14.93
2018-06-13T01:40:02.798Z,14.93
2018-06-13T01:41:02.950Z,14.84
2018-06-13T01:42:03.103Z,14.84
2018-06-13T01:43:03.257Z,14.75
2018-06-13T01:44:03.410Z,14.80
2018-06-13T01:45:03.564Z,14.74
2018-06-13T01:46:03.716Z,14.64
2018-06-13T01:47:03.870Z,14.67
2018-06-13T01:48:04.021Z,14.67
2018-06-13T01:49:04.175Z,14.67
2018-06-13T01:50:04.326Z,14.71
2018-06-13T01:51:04.480Z,14.72
2018-06-13T01:52:04.634Z,14.67
2018-06-13T01:53:04.786Z,14.68
2018-06-13T01:54:04.939Z,14.57
2018-06-13T01:55:05.091Z,14.68
2018-06-13T01:56:05.244Z,14.61
2018-06-13T01:57:05.396Z,14.54
2018-06-13T01:58:05.552Z,14.54
2018-06-13T01:59:05.704Z,14.57
2018-06-13T02:00:05.862Z,14.57
2018-06-13T02:01:06.026Z,14.50
2018-06-13T02:02:06.181Z,14.57
2018-06-13T02:03:06.331Z,14.54
2018-06-13T02:04:06.484Z,14.54
2018-06-13T02:05:06.637Z,14.53
2018-06-13T02:06:06.792Z,14.54
2018-06-13T02:07:06.941Z,14.52
2018-06-13T02:08:07.095Z,14.62
2018-06-13T02:09:07.250Z,14.56
2018-06-13T02:10:07.401Z,14.50
2018-06-13T02:11:07.552Z,14.49
2018-06-13T02:12:07.706Z,14.52
2018-06-13T02:13:07.857Z,14.38
2018-06-13T02:14:08.009Z,14.49
2018-06-13T02:15:08.165Z,14.49
2018-06-13T02:16:08.312Z,14.42
2018-06-13T02:17:08.466Z,14.50
2018-06-13T02:18:08.621Z,14.38
2018-06-13T02:19:08.772Z,14.34
2018-06-13T02:20:08.928Z,14.31
2018-06-13T02:21:09.081Z,14.28
2018-06-13T02:22:09.235Z,14.27
2018-06-13T02:23:09.387Z,14.28
2018-06-13T02:24:09.538Z,14.25
2018-06-13T02:25:09.692Z,14.17
2018-06-13T02:26:09.845Z,14.21
2018-06-13T02:27:09.999Z,14.20
2018-06-13T02:28:10.157Z,14.25
2018-06-13T02:29:10.307Z,14.20
2018-06-13T02:30:10.460Z,14.09
2018-06-13T02:31:10.617Z,14.17
2018-06-13T02:32:10.762Z,14.19
2018-06-13T02:33:10.918Z,14.14
2018-06-13T02:34:11.072Z,14.10
2018-06-13T02:35:11.221Z,14.12
2018-06-13T02:36:11.374Z,14.09
2018-06-13T02:37:11.526Z,14.10
2018-06-13T02:38:11.682Z,14.16
2018-06-13T02:39:11.830Z,14.06
2018-06-13T02:40:11.984Z,14.09
2018-06-13T02:41:12.137Z,13.99
2018-06-13T02:42:12.287Z,14.12
2018-06-13T02:43:12.441Z,14.06
2018-06-13T02:44:12.593Z,14.06
2018-06-13T02:45:12.751Z,13.99
2018-06-13T02:46:12.900Z,13.95
2018-06-13T02:47:13.052Z,13.94
2018-06-13T02:48:13.207Z,14.01
2018-06-13T02:49:13.359Z,13.92
2018-06-13T02:50:13.510Z,13.99
2018-06-13T02:51:13.661Z,13.98
2018-06-13T02:52:13.813Z,13.94
2018-06-13T02:53:13.966Z,13.96
2018-06-13T02:54:14.117Z,13.95
2018-06-13T02:55:14.270Z,13.88
2018-06-13T02:56:14.423Z,13.94
2018-06-13T02:57:14.573Z,13.91
2018-06-13T02:58:14.726Z,13.88
2018-06-13T02:59:14.879Z,13.94
2018-06-13T03:00:15.029Z,13.89
2018-06-13T03:01:15.182Z,13.77
2018-06-13T03:02:15.334Z,13.77
2018-06-13T03:03:15.492Z,13.76
2018-06-13T03:04:15.643Z,13.63
2018-06-13T03:05:15.790Z,13.67
2018-06-13T03:06:15.944Z,13.63
2018-06-13T03:07:16.092Z,13.67
2018-06-13T03:08:16.250Z,13.65
2018-06-13T03:09:16.399Z,13.58
2018-06-13T03:10:16.552Z,13.58
2018-06-13T03:11:16.706Z,13.59
2018-06-13T03:12:16.855Z,13.55
2018-06-13T03:13:17.013Z,13.44
2018-06-13T03:14:17.162Z,13.38
2018-06-13T03:15:17.311Z,13.38
2018-06-13T03:16:17.518Z,13.29
2018-06-13T03:17:17.616Z,13.25
2018-06-13T03:18:17.770Z,13.27
2018-06-13T03:19:17.924Z,13.25
2018-06-13T03:20:18.073Z,13.18
2018-06-13T03:21:18.222Z,13.15
2018-06-13T03:22:18.378Z,13.12
2018-06-13T03:23:18.525Z,12.99
2018-06-13T03:24:18.675Z,13.09
2018-06-13T03:25:18.829Z,13.11
2018-06-13T03:26:18.980Z,13.07
2018-06-13T03:27:19.133Z,13.15
2018-06-13T03:28:19.286Z,13.00
2018-06-13T03:29:19.437Z,13.09
2018-06-13T03:30:19.590Z,13.03
2018-06-13T03:31:19.742Z,13.00
2018-06-13T03:32:19.892Z,13.00
2018-06-13T03:33:20.043Z,13.07
2018-06-13T03:34:20.194Z,13.09
2018-06-13T03:35:20.347Z,13.00
2018-06-13T03:36:20.499Z,12.93
2018-06-13T03:37:20.649Z,12.95
2018-06-13T03:38:20.803Z,12.93
2018-06-13T03:39:20.954Z,12.96
2018-06-13T03:40:21.108Z,12.97
2018-06-13T03:41:21.259Z,13.04
2018-06-13T03:42:21.411Z,12.97
2018-06-13T03:43:21.563Z,13.04
2018-06-13T03:44:21.717Z,12.96
2018-06-13T03:45:21.871Z,12.95
2018-06-13T03:46:22.023Z,13.02
2018-06-13T03:47:22.174Z,12.99
2018-06-13T03:48:22.325Z,13.04
2018-06-13T03:49:22.478Z,13.04
2018-06-13T03:50:22.631Z,13.11
2018-06-13T03:51:22.784Z,13.12
2018-06-13T03:52:22.934Z,13.14
2018-06-13T03:53:23.088Z,13.24
2018-06-13T03:54:23.241Z,13.20
2018-06-13T03:55:23.397Z,13.27
2018-06-13T03:56:23.548Z,13.36
2018-06-13T03:57:23.699Z,13.41
2018-06-13T03:58:23.850Z,13.33
2018-06-13T03:59:24.005Z,13.30
2018-06-13T04:00:24.157Z,13.25
2018-06-13T04:01:24.313Z,13.40
2018-06-13T04:02:24.463Z,13.30
2018-06-13T04:03:24.617Z,13.30
2018-06-13T04:04:24.770Z,13.36
2018-06-13T04:05:24.925Z,13.22
2018-06-13T04:06:25.077Z,13.25
2018-06-13T04:07:25.229Z,13.37
2018-06-13T04:08:25.382Z,13.43
2018-06-13T04:09:25.535Z,13.36
2018-06-13T04:10:25.688Z,13.41
2018-06-13T04:11:25.841Z,13.46
2018-06-13T04:12:25.992Z,13.47
2018-06-13T04:13:26.147Z,13.59
2018-06-13T04:14:26.298Z,13.55
2018-06-13T04:15:26.458Z,13.55
2018-06-13T04:16:26.608Z,13.58
2018-06-13T04:17:26.758Z,13.58
2018-06-13T04:18:26.916Z,13.54
2018-06-13T04:19:27.076Z,13.59
2018-06-13T04:20:27.219Z,13.58
2018-06-13T04:21:27.370Z,13.62
2018-06-13T04:22:27.560Z,13.65
2018-06-13T04:23:27.677Z,13.69
2018-06-13T04:24:27.830Z,13.76
2018-06-13T04:25:27.981Z,13.69
2018-06-13T04:26:28.133Z,13.77
2018-06-13T04:27:28.288Z,13.76
2018-06-13T04:28:28.440Z,13.74
2018-06-13T04:29:28.591Z,13.67
2018-06-13T04:30:28.744Z,13.62
2018-06-13T04:31:28.897Z,13.71
2018-06-13T04:32:29.056Z,13.76
2018-06-13T04:33:29.204Z,13.79
2018-06-13T04:34:29.357Z,13.74
2018-06-13T04:35:29.511Z,13.74
2018-06-13T04:36:29.670Z,13.91
2018-06-13T04:37:29.818Z,14.01
2018-06-13T04:38:29.973Z,13.99
2018-06-13T04:39:30.124Z,13.92
2018-06-13T04:40:30.279Z,14.06
2018-06-13T04:41:30.431Z,14.07
2018-06-13T04:42:30.588Z,14.13
2018-06-13T04:43:30.739Z,14.17
2018-06-13T04:44:30.893Z,14.14
2018-06-13T04:45:31.046Z,14.09
2018-06-13T04:46:31.198Z,14.14
2018-06-13T04:47:31.355Z,14.13
2018-06-13T04:48:31.505Z,14.02
2018-06-13T04:49:31.657Z,14.09
2018-06-13T04:50:31.813Z,14.14
2018-06-13T04:51:31.965Z,14.14
2018-06-13T04:52:32.119Z,14.12
2018-06-13T04:53:32.275Z,14.20
2018-06-13T04:54:32.429Z,14.21
2018-06-13T04:55:32.580Z,14.25
2018-06-13T04:56:32.731Z,14.19
2018-06-13T04:57:32.885Z,14.19
2018-06-13T04:58:33.036Z,14.28
2018-06-13T04:59:33.188Z,14.25
2018-06-13T05:00:33.348Z,14.34
2018-06-13T05:01:33.499Z,14.24
2018-06-13T05:02:33.657Z,14.25
2018-06-13T05:03:33.812Z,14.19
2018-06-13T05:04:33.964Z,14.25
2018-06-13T05:05:34.119Z,14.09
2018-06-13T05:06:34.272Z,14.28
2018-06-13T05:07:34.426Z,14.19
2018-06-13T05:08:34.580Z,14.31
2018-06-13T05:09:34.735Z,14.34
2018-06-13T05:10:34.888Z,14.47
2018-06-13T05:11:35.042Z,14.42
2018-06-13T05:12:35.196Z,14.47
2018-06-13T05:13:35.348Z,14.43
2018-06-13T05:14:35.502Z,14.38
2018-06-13T05:15:35.654Z,14.49
2018-06-13T05:16:35.811Z,14.38
2018-06-13T05:17:35.960Z,14.56
2018-06-13T05:18:36.114Z,14.47
2018-06-13T05:19:36.266Z,14.52
2018-06-13T05:20:36.427Z,14.64
2018-06-13T05:21:36.574Z,14.46
2018-06-13T05:22:36.729Z,14.49
2018-06-13T05:23:36.881Z,14.37
2018-06-13T05:24:37.034Z,14.37
2018-06-13T05:25:37.187Z,14.32
2018-06-13T05:26:37.341Z,14.38
2018-06-13T05:27:37.494Z,14.50
2018-06-13T05:28:37.654Z,14.34
2018-06-13T05:29:37.801Z,14.53
2018-06-13T05:30:37.956Z,14.50
2018-06-13T05:31:38.111Z,14.39
2018-06-13T05:32:38.261Z,14.43
2018-06-13T05:33:38.415Z,14.49
2018-06-13T05:34:38.572Z,14.47
2018-06-13T05:35:38.724Z,14.54
2018-06-13T05:36:38.878Z,14.49
2018-06-13T05:37:39.029Z,14.62
2018-06-13T05:38:39.184Z,14.50
2018-06-13T05:39:39.336Z,14.44
2018-06-13T05:40:39.490Z,14.38
2018-06-13T05:41:39.642Z,14.62
2018-06-13T05:42:39.797Z,14.53
2018-06-13T05:43:39.950Z,14.44
2018-06-13T05:44:40.106Z,14.49
2018-06-13T05:45:40.253Z,14.44
2018-06-13T05:46:40.410Z,14.60
2018-06-13T05:47:40.560Z,14.53
2018-06-13T05:48:40.714Z,14.47
2018-06-13T05:49:40.865Z,14.53
2018-06-13T05:50:41.018Z,14.39
2018-06-13T05:51:41.172Z,14.50
2018-06-13T05:52:41.332Z,14.50
2018-06-13T05:53:41.480Z,14.38
2018-06-13T05:54:41.635Z,14.44
2018-06-13T05:55:41.786Z,14.43
2018-06-13T05:56:41.938Z,14.38
2018-06-13T05:57:42.093Z,14.46
2018-06-13T05:58:42.246Z,14.47
2018-06-13T05:59:42.399Z,14.46
2018-06-13T06:00:42.553Z,14.47
2018-06-13T06:01:42.704Z,14.50
2018-06-13T06:02:42.858Z,14.37
2018-06-13T06:03:43.013Z,14.46
2018-06-13T06:04:43.165Z,14.42
2018-06-13T06:05:43.319Z,14.39
2018-06-13T06:06:43.479Z,14.49
2018-06-13T06:07:43.630Z,14.57
2018-06-13T06:08:43.785Z,14.50
2018-06-13T06:09:43.939Z,14.61
2018-06-13T06:10:44.092Z,14.52
2018-06-13T06:11:44.246Z,14.54
2018-06-13T06:12:44.399Z,14.56
2018-06-13T06:13:44.552Z,14.57
2018-06-13T06:14:44.704Z,14.57
2018-06-13T06:15:44.853Z,14.56
2018-06-13T06:16:45.009Z,14.47
2018-06-13T06:17:45.160Z,14.56
2018-06-13T06:18:45.314Z,14.57
2018-06-13T06:19:45.469Z,14.44
2018-06-13T06:20:45.617Z,14.60
2018-06-13T06:21:45.772Z,14.54
2018-06-13T06:22:45.930Z,14.54
2018-06-13T06:23:46.076Z,14.72
2018-06-13T06:24:46.231Z,14.64
2018-06-13T06:25:46.385Z,14.64
2018-06-13T06:26:46.536Z,14.80
2018-06-13T06:27:46.691Z,14.83
2018-06-13T06:28:46.866Z,14.65
2018-06-13T06:29:47.019Z,14.61
2018-06-13T06:30:47.173Z,14.61
2018-06-13T06:31:47.332Z,14.64
2018-06-13T06:32:47.482Z,14.72
2018-06-13T06:33:47.634Z,14.83
2018-06-13T06:34:47.789Z,14.84
2018-06-13T06:35:47.942Z,14.83
2018-06-13T06:36:48.096Z,14.72
2018-06-13T06:37:48.249Z,14.83
2018-06-13T06:38:48.404Z,14.80
2018-06-13T06:39:48.558Z,14.78
2018-06-13T06:40:48.711Z,14.75
2018-06-13T06:41:48.864Z,14.80
2018-06-13T06:42:49.017Z,14.80
2018-06-13T06:43:49.173Z,14.83
2018-06-13T06:44:49.325Z,14.86
2018-06-13T06:45:49.479Z,14.81
2018-06-13T06:46:49.636Z,14.81
2018-06-13T06:47:49.788Z,14.84
2018-06-13T06:48:49.940Z,14.83
2018-06-13T06:49:50.095Z,14.83
2018-06-13T06:50:50.249Z,14.86
2018-06-13T06:51:50.402Z,14.90
2018-06-13T06:52:50.558Z,14.93
2018-06-13T06:53:50.710Z,14.88
2018-06-13T06:54:50.864Z,14.99
2018-06-13T06:55:51.018Z,15.06
2018-06-13T06:56:51.172Z,14.88
2018-06-13T06:57:51.325Z,14.86
2018-06-13T06:58:51.479Z,14.91
2018-06-13T06:59:51.635Z,14.87
2018-06-13T07:00:51.788Z,14.93
2018-06-13T07:01:51.942Z,14.91
2018-06-13T07:02:52.096Z,14.81
2018-06-13T07:03:52.250Z,14.87
2018-06-13T07:04:52.405Z,14.80
2018-06-13T07:05:52.558Z,14.81
2018-06-13T07:06:52.713Z,14.88
2018-06-13T07:07:52.866Z,14.80
2018-06-13T07:08:53.021Z,14.84
2018-06-13T07:09:53.172Z,14.84
2018-06-13T07:10:53.326Z,14.83
2018-06-13T07:11:53.482Z,14.67
2018-06-13T07:12:53.633Z,14.52
2018-06-13T07:13:53.787Z,14.53
2018-06-13T07:14:53.941Z,14.50
2018-06-13T07:15:54.096Z,14.54
2018-06-13T07:16:54.249Z,14.65
2018-06-13T07:17:54.402Z,14.64
2018-06-13T07:18:54.607Z,14.74
2018-06-13T07:19:54.709Z,14.75
2018-06-13T07:20:54.861Z,14.74
2018-06-13T07:21:55.014Z,14.74
2018-06-13T07:22:55.169Z,14.74
2018-06-13T07:23:55.325Z,14.80
2018-06-13T07:24:55.479Z,14.78
2018-06-13T07:25:55.633Z,14.83
2018-06-13T07:26:55.783Z,14.86
2018-06-13T07:27:55.939Z,14.86
2018-06-13T07:28:56.092Z,14.99
2018-06-13T07:29:56.245Z,15.02
2018-06-13T07:30:56.400Z,15.06
2018-06-13T07:31:56.553Z,15.05
2018-06-13T07:32:56.706Z,15.06
2018-06-13T07:33:56.860Z,15.11
2018-06-13T07:34:57.013Z,15.15
2018-06-13T07:35:57.165Z,15.21
2018-06-13T07:36:57.321Z,15.19
2018-06-13T07:37:57.478Z,15.33
2018-06-13T07:38:57.625Z,15.38
2018-06-13T07:39:57.780Z,15.39
2018-06-13T07:40:57.932Z,15.42
2018-06-13T07:41:58.086Z,15.46
2018-06-13T07:42:58.239Z,15.45
2018-06-13T07:43:58.393Z,15.35
2018-06-13T07:44:58.548Z,15.35
2018-06-13T07:45:58.704Z,15.36
2018-06-13T07:46:58.859Z,15.41
2018-06-13T07:47:59.015Z,15.42
2018-06-13T07:48:59.164Z,15.49
2018-06-13T07:49:59.317Z,15.26
2018-06-13T07:50:59.471Z,15.24
2018-06-13T07:51:59.624Z,15.08
2018-06-13T07:52:59.782Z,14.99
2018-06-13T07:53:59.936Z,14.81
2018-06-13T07:55:00.091Z,14.84
2018-06-13T07:56:00.246Z,14.61
2018-06-13T07:57:00.402Z,14.56
2018-06-13T07:58:00.552Z,14.57
2018-06-13T07:59:00.707Z,14.65
2018-06-13T08:00:00.861Z,14.62
2018-06-13T08:01:01.013Z,14.65
2018-06-13T08:02:01.165Z,14.71
2018-06-13T08:03:01.324Z,14.78
2018-06-13T08:04:01.473Z,14.61
2018-06-13T08:05:01.631Z,14.69
2018-06-13T08:06:01.783Z,14.83
2018-06-13T08:07:01.936Z,14.83
2018-06-13T08:08:02.090Z,14.78
2018-06-13T08:09:02.242Z,14.84
2018-06-13T08:10:02.396Z,15.02
2018-06-13T08:11:02.548Z,15.06
2018-06-13T08:12:02.703Z,15.41
2018-06-13T08:13:02.857Z,15.42
2018-06-13T08:14:03.009Z,15.42
2018-06-13T08:15:03.164Z,15.54
2018-06-13T08:16:03.322Z,15.66
2018-06-13T08:17:03.471Z,15.64
2018-06-13T08:18:03.623Z,15.85
2018-06-13T08:19:03.801Z,15.99
2018-06-13T08:20:03.953Z,15.96
2018-06-13T08:21:04.106Z,15.94
2018-06-13T08:22:04.261Z,15.89
2018-06-13T08:23:04.414Z,15.82
2018-06-13T08:24:04.570Z,15.78
2018-06-13T08:25:04.724Z,15.72
2018-06-13T08:26:04.919Z,15.63
2018-06-13T08:27:05.033Z,15.59
2018-06-13T08:28:05.187Z,15.57
2018-06-13T08:29:05.343Z,15.56
2018-06-13T08:30:05.498Z,15.68
2018-06-13T08:31:05.651Z,15.64
2018-06-13T08:32:05.810Z,15.59
2018-06-13T08:33:05.959Z,15.68
2018-06-13T08:34:06.117Z,15.60
2018-06-13T08:35:06.271Z,15.54
2018-06-13T08:36:06.426Z,15.48
2018-06-13T08:37:06.578Z,15.51
2018-06-13T08:38:06.739Z,15.64
2018-06-13T08:39:06.892Z,15.54
2018-06-13T08:40:07.046Z,15.68
2018-06-13T08:41:07.212Z,15.61
2018-06-13T08:42:07.366Z,15.57
2018-06-13T08:43:07.517Z,15.52
2018-06-13T08:44:07.670Z,15.42
2018-06-13T08:45:07.824Z,15.39
2018-06-13T08:46:07.977Z,15.28
2018-06-13T08:47:08.134Z,15.43
2018-06-13T08:48:08.286Z,15.45
2018-06-13T08:49:08.438Z,15.41
2018-06-13T08:50:08.591Z,15.28
2018-06-13T08:51:08.745Z,15.35
2018-06-13T08:52:08.898Z,15.41
2018-06-13T08:53:09.053Z,15.35
2018-06-13T08:54:09.222Z,15.36
2018-06-13T08:55:09.360Z,15.26
2018-06-13T08:56:09.514Z,15.17
2018-06-13T08:57:09.667Z,15.27
2018-06-13T08:58:09.822Z,15.24
2018-06-13T08:59:09.975Z,15.45
2018-06-13T09:00:10.130Z,15.49
2018-06-13T09:01:10.283Z,15.52
2018-06-13T09:02:10.440Z,15.43
2018-06-13T09:03:10.641Z,15.42
2018-06-13T09:04:10.750Z,15.43
2018-06-13T09:05:10.904Z,15.51
2018-06-13T09:06:11.060Z,15.36
2018-06-13T09:07:11.213Z,15.42
2018-06-13T09:08:11.365Z,15.38
2018-06-13T09:09:11.519Z,15.39
2018-06-13T09:10:11.674Z,15.33
2018-06-13T09:11:11.827Z,15.41
2018-06-13T09:12:11.980Z,15.46
2018-06-13T09:13:12.135Z,15.46
2018-06-13T09:14:12.291Z,15.52
2018-06-13T09:15:12.443Z,15.64
2018-06-13T09:16:12.597Z,15.63
2018-06-13T09:17:12.750Z,15.67
2018-06-13T09:18:12.906Z,15.82
2018-06-13T09:19:13.063Z,16.04
2018-06-13T09:20:13.214Z,16.01
2018-06-13T09:21:13.367Z,16.25
2018-06-13T09:22:13.521Z,16.56
2018-06-13T09:23:13.678Z,16.65
2018-06-13T09:24:13.831Z,16.74
2018-06-13T09:25:13.987Z,16.83
2018-06-13T09:26:14.140Z,16.95
2018-06-13T09:27:14.295Z,16.99
2018-06-13T09:28:14.452Z,16.93
2018-06-13T09:29:14.607Z,16.85
2018-06-13T09:30:14.761Z,16.90
2018-06-13T09:31:14.976Z,16.68
2018-06-13T09:32:15.079Z,16.60
2018-06-13T09:33:15.227Z,16.68
2018-06-13T09:34:15.382Z,16.60
2018-06-13T09:35:15.538Z,16.49
2018-06-13T09:36:15.694Z,16.55
2018-06-13T09:37:15.871Z,16.52
2018-06-13T09:38:16.003Z,16.49
2018-06-13T09:39:16.158Z,16.49
2018-06-13T09:40:16.316Z,16.35
2018-06-13T09:41:16.471Z,16.11
2018-06-13T09:42:16.628Z,16.20
2018-06-13T09:43:16.783Z,16.26
2018-06-13T09:44:16.939Z,16.00
2018-06-13T09:45:17.093Z,16.07
2018-06-13T09:46:17.250Z,16.03
2018-06-13T09:47:23.457Z,16.26
2018-06-13T09:48:17.559Z,16.27
2018-06-13T09:49:17.717Z,16.18
2018-06-13T09:50:17.873Z,16.25
2018-06-13T09:51:18.028Z,16.23
2018-06-13T09:52:18.183Z,16.31
2018-06-13T09:53:18.338Z,16.23
2018-06-13T09:54:18.494Z,16.23
2018-06-13T09:55:18.650Z,16.31
2018-06-13T09:56:18.805Z,16.40
2018-06-13T09:57:18.959Z,16.38
2018-06-13T09:58:19.114Z,16.40
2018-06-13T09:59:19.269Z,16.38
2018-06-13T10:00:19.424Z,16.42
2018-06-13T10:01:19.587Z,16.44
2018-06-13T10:02:19.739Z,16.34
2018-06-13T10:03:19.895Z,16.48
2018-06-13T10:04:20.048Z,16.48
2018-06-13T10:05:20.201Z,16.59
2018-06-13T10:06:20.358Z,16.60
2018-06-13T10:07:20.512Z,16.78
2018-06-13T10:08:20.668Z,16.75
2018-06-13T10:09:20.821Z,16.68
2018-06-13T10:10:20.980Z,16.68
2018-06-13T10:11:21.142Z,16.63
2018-06-13T10:12:21.292Z,16.77
2018-06-13T10:13:21.448Z,16.89
2018-06-13T10:14:21.606Z,16.85
2018-06-13T10:15:21.758Z,16.65
2018-06-13T10:16:21.914Z,16.71
2018-06-13T10:17:22.071Z,16.83
2018-06-13T10:18:22.225Z,17.03
2018-06-13T10:19:22.379Z,17.18
2018-06-13T10:20:22.536Z,17.43
2018-06-13T10:21:22.697Z,17.51
2018-06-13T10:22:22.844Z,17.79
2018-06-13T10:23:23.001Z,17.95
2018-06-13T10:24:23.158Z,17.94
2018-06-13T10:25:23.328Z,17.97
2018-06-13T10:26:23.477Z,17.62
2018-06-13T10:27:23.640Z,17.62
2018-06-13T10:28:23.792Z,17.66
2018-06-13T10:29:23.948Z,17.57
2018-06-13T10:30:24.105Z,17.40
2018-06-13T10:31:24.261Z,17.08
2018-06-13T10:32:24.419Z,17.07
2018-06-13T10:33:24.574Z,16.90
2018-06-13T10:34:24.783Z,16.75
2018-06-13T10:35:24.897Z,16.88
2018-06-13T10:36:25.043Z,16.67
2018-06-13T10:37:25.199Z,16.80
2018-06-13T10:38:25.353Z,16.62
2018-06-13T10:39:25.511Z,16.52
2018-06-13T10:40:25.666Z,16.55
2018-06-13T10:41:25.821Z,16.38
2018-06-13T10:42:25.977Z,16.45
2018-06-13T10:43:26.133Z,16.38
2018-06-13T10:44:26.291Z,16.31
2018-06-13T10:45:26.443Z,16.45
2018-06-13T10:46:26.599Z,16.50
2018-06-13T10:47:26.758Z,16.45
2018-06-13T10:48:26.930Z,16.53
2018-06-13T10:49:27.067Z,16.53
2018-06-13T10:50:27.221Z,16.58
2018-06-13T10:51:27.377Z,16.56
2018-06-13T10:52:27.531Z,16.70
2018-06-13T10:53:27.685Z,16.59
2018-06-13T10:54:27.839Z,16.55
2018-06-13T10:55:27.995Z,16.49
2018-06-13T10:56:28.148Z,16.45
2018-06-13T10:57:28.304Z,16.44
2018-06-13T10:58:28.472Z,16.44
2018-06-13T10:59:28.614Z,16.70
2018-06-13T11:00:28.773Z,16.60
2018-06-13T11:01:28.932Z,16.73
2018-06-13T11:02:29.082Z,16.90
2018-06-13T11:03:29.236Z,16.90
2018-06-13T11:04:29.391Z,17.13
2018-06-13T11:05:29.549Z,17.22
2018-06-13T11:06:29.703Z,17.30
2018-06-13T11:07:29.857Z,17.11
2018-06-13T11:08:30.015Z,17.32
2018-06-13T11:09:30.170Z,17.22
2018-06-13T11:10:30.323Z,17.40
2018-06-13T11:11:30.479Z,17.35
2018-06-13T11:12:30.632Z,17.51
2018-06-13T11:13:30.791Z,17.48
2018-06-13T11:14:30.943Z,17.36
2018-06-13T11:15:31.098Z,17.28
2018-06-13T11:16:31.255Z,17.38
2018-06-13T11:17:31.409Z,17.28
2018-06-13T11:18:31.564Z,17.30
2018-06-13T11:19:31.719Z,17.41
2018-06-13T11:20:31.879Z,17.48
2018-06-13T11:21:32.039Z,17.50
2018-06-13T11:22:32.191Z,17.54
2018-06-13T11:23:32.344Z,17.53
2018-06-13T11:24:32.500Z,17.84
2018-06-13T11:25:32.661Z,17.87
2018-06-13T11:26:32.814Z,17.95
2018-06-13T11:27:32.966Z,17.91
2018-06-13T11:28:33.121Z,17.95
2018-06-13T11:29:33.276Z,18.06
2018-06-13T11:30:33.433Z,18.06
2018-06-13T11:31:33.643Z,17.91
2018-06-13T11:32:33.750Z,17.85
2018-06-13T11:33:33.909Z,17.78
2018-06-13T11:34:34.064Z,17.64
2018-06-13T11:35:34.220Z,17.53
2018-06-13T11:36:34.377Z,17.30
2018-06-13T11:37:34.537Z,17.22
2018-06-13T11:38:34.694Z,17.25
2018-06-13T11:39:34.849Z,17.13
2018-06-13T11:40:35.004Z,17.06
2018-06-13T11:41:35.162Z,17.06
2018-06-13T11:42:35.316Z,17.00
2018-06-13T11:43:35.473Z,16.95
2018-06-13T11:44:35.629Z,16.83
2018-06-13T11:45:35.786Z,16.89
2018-06-13T11:46:35.941Z,16.95
2018-06-13T11:47:36.097Z,17.17
2018-06-13T11:48:36.259Z,17.29
2018-06-13T11:49:36.415Z,17.50
2018-06-13T11:50:36.572Z,17.88
2018-06-13T11:51:36.727Z,17.94
2018-06-13T11:52:36.882Z,18.04
2018-06-13T11:53:37.048Z,18.18
2018-06-13T11:54:37.199Z,18.21
2018-06-13T11:55:37.355Z,18.33
2018-06-13T11:56:37.509Z,18.55
2018-06-13T11:57:37.666Z,18.43
2018-06-13T11:58:37.829Z,18.72
2018-06-13T11:59:37.986Z,18.73
2018-06-13T12:00:38.145Z,18.73
2018-06-13T12:01:38.325Z,18.65
2018-06-13T12:02:38.458Z,18.43
2018-06-13T12:03:38.621Z,18.54
2018-06-13T12:04:38.774Z,18.36
2018-06-13T12:05:38.931Z,18.15
2018-06-13T12:06:39.095Z,17.89
2018-06-13T12:07:39.264Z,17.91
2018-06-13T12:08:39.435Z,17.82
2018-06-13T12:09:39.598Z,17.73
2018-06-13T12:10:39.753Z,17.66
2018-06-13T12:11:39.959Z,17.44
2018-06-13T12:12:40.076Z,17.54
2018-06-13T12:13:40.233Z,17.48
2018-06-13T12:14:40.388Z,17.46
2018-06-13T12:15:40.545Z,17.66
2018-06-13T12:16:40.700Z,17.78
2018-06-13T12:17:40.873Z,17.69
2018-06-13T12:18:41.031Z,17.59
2018-06-13T12:19:41.187Z,17.73
2018-06-13T12:20:41.344Z,17.74
2018-06-13T12:21:41.509Z,17.55
2018-06-13T12:22:41.661Z,17.67
2018-06-13T12:23:41.817Z,17.73
2018-06-13T12:24:41.973Z,17.62
2018-06-13T12:25:42.132Z,17.54
2018-06-13T12:26:42.287Z,17.54
2018-06-13T12:27:42.443Z,17.50
2018-06-13T12:28:42.656Z,17.26
2018-06-13T12:29:42.756Z,17.43
2018-06-13T12:30:42.920Z,17.36
2018-06-13T12:31:43.077Z,17.33
2018-06-13T12:32:43.236Z,17.46
2018-06-13T12:33:43.395Z,17.55
2018-06-13T12:34:43.540Z,17.70
2018-06-13T12:35:43.716Z,17.88
2018-06-13T12:36:43.871Z,17.84
2018-06-13T12:37:44.030Z,17.74
2018-06-13T12:38:44.187Z,17.55
2018-06-13T12:39:44.344Z,17.66
2018-06-13T12:40:44.501Z,17.57
2018-06-13T12:41:44.658Z,17.70
2018-06-13T12:42:44.814Z,17.73
2018-06-13T12:43:44.970Z,17.57
2018-06-13T12:44:45.130Z,17.62
2018-06-13T12:45:45.292Z,17.64
2018-06-13T12:46:45.451Z,17.70
2018-06-13T12:47:45.605Z,17.95
2018-06-13T12:48:45.762Z,17.99
2018-06-13T12:49:45.923Z,17.85
2018-06-13T12:50:46.131Z,18.09
2018-06-13T12:51:46.245Z,18.02
2018-06-13T12:52:46.405Z,18.33
2018-06-13T12:53:46.578Z,18.54
2018-06-13T12:54:46.741Z,18.74